AXCGGARGarmin  id=247  GPS 72 Software Version 2.50|2140330771
HFDTE221210
HFPLTPilot:UNREGISTERED
HFTZOTimezone:1
HFSITSite:
HPGTYGliderType:
HPGIDGliderID:
HFDTM100DATUM:WGS-1984
HFCIDCOMPETITIONID:
HFCCLCOMPETITIONCLASS:
LXCG     ICON:C:\Program Files\CompeGPS\symbols\IconsPlay\cronos.ico
LXCG     COLOR:000119000
I00
B1522003747942N00053981WA0000000160
B1522063747943N00053980WA0000000162
B1522123747933N00053973WA0000000165
B1522183747918N00053960WA0000000172
B1522243747906N00053952WA0000000178
B1522303747895N00053946WA0000000182
B1522363747885N00053949WA0000000186
B1522423747876N00053955WA0000000189
B1522483747870N00053962WA0000000194
B1522543747864N00053974WA0000000189
B1523003747858N00053985WA0000000190
B1523063747855N00053998WA0000000191
B1523123747851N00054009WA0000000188
B1523183747848N00054024WA0000000184
B1523243747842N00054039WA0000000184
B1523303747835N00054047WA0000000182
B1523363747825N00054057WA0000000179
B1523423747820N00054073WA0000000177
B1523483747828N00054100WA0000000180
B1523543747842N00054124WA0000000182
B1524003747861N00054154WA0000000185
B1524063747882N00054183WA0000000195
B1524123747896N00054212WA0000000203
B1524183747901N00054238WA0000000211
B1524243747896N00054234WA0000000213
B1524303747891N00054212WA0000000218
B1524363747883N00054197WA0000000227
B1524423747875N00054184WA0000000235
B1524483747868N00054177WA0000000240
B1524543747863N00054182WA0000000240
B1525003747861N00054204WA0000000239
B1525063747860N00054218WA0000000244
B1525123747857N00054239WA0000000244
B1525183747860N00054265WA0000000245
B1525243747868N00054290WA0000000242
B1525303747874N00054314WA0000000239
B1525363747879N00054339WA0000000233
B1525423747883N00054367WA0000000233
B1525483747889N00054390WA0000000234
B1525543747899N00054411WA0000000234
B1526003747914N00054435WA0000000234
B1526063747931N00054462WA0000000230
B1526123747967N00054481WA0000000228
B1526183748002N00054499WA0000000229
B1526243748025N00054521WA0000000234
B1526303748039N00054547WA0000000239
B1526363748045N00054578WA0000000240
B1526423748049N00054606WA0000000243
B1526483748051N00054637WA0000000250
B1526543748064N00054673WA0000000256
B1527003748073N00054708WA0000000263
B1527063748065N00054730WA0000000261
B1527123748057N00054725WA0000000260
B1527183748053N00054703WA0000000260
B1527243748051N00054678WA0000000262
B1527303748055N00054648WA0000000265
B1527363748057N00054621WA0000000268
B1527423748056N00054594WA0000000269
B1527483748057N00054565WA0000000271
B1527543748056N00054533WA0000000273
B1528003748047N00054507WA0000000281
B1528063748036N00054508WA0000000284
B1528123748048N00054535WA0000000290
B1528183748046N00054549WA0000000290
B1528243748045N00054525WA0000000292
B1528303748047N00054495WA0000000294
B1528363748035N00054498WA0000000296
B1528423748034N00054520WA0000000302
B1528483748032N00054541WA0000000304
B1528543748029N00054563WA0000000309
B1529003748031N00054590WA0000000317
B1529063748028N00054612WA0000000322
B1529123748028N00054633WA0000000324
B1529183748032N00054651WA0000000326
B1529243748031N00054631WA0000000327
B1529303748041N00054597WA0000000328
B1529363748048N00054564WA0000000327
B1529423748048N00054533WA0000000331
B1529483748046N00054540WA0000000333
B1529543748044N00054548WA0000000339
B1530003748037N00054545WA0000000347
B1530063748032N00054550WA0000000348
B1530123748034N00054565WA0000000349
B1530183748026N00054559WA0000000349
B1530243748022N00054564WA0000000346
B1530303748025N00054589WA0000000348
B1530363748031N00054607WA0000000352
B1530423748027N00054611WA0000000356
B1530483748024N00054591WA0000000358
B1530543748019N00054594WA0000000357
B1531003748019N00054609WA0000000358
B1531063748019N00054620WA0000000360
B1531123748019N00054625WA0000000361
B1531183748016N00054636WA0000000357
B1531243748013N00054655WA0000000355
B1531303748013N00054669WA0000000357
B1531363748010N00054670WA0000000353
B1531423748017N00054637WA0000000352
B1531483748034N00054599WA0000000355
B1531543748035N00054578WA0000000356
B1532003748047N00054600WA0000000362
B1532063748047N00054607WA0000000362
B1532123748053N00054576WA0000000365
B1532183748055N00054552WA0000000367
B1532243748053N00054548WA0000000371
B1532303748049N00054541WA0000000372
B1532363748044N00054548WA0000000374
B1532423748043N00054553WA0000000374
B1532483748039N00054565WA0000000376
B1532543748042N00054578WA0000000380
B1533003748041N00054589WA0000000380
B1533063748040N00054602WA0000000383
B1533123748038N00054616WA0000000380
B1533183748034N00054627WA0000000380
B1533243748034N00054640WA0000000385
B1533303748033N00054649WA0000000388
B1533363748029N00054651WA0000000390
B1533423748024N00054658WA0000000389
B1533483748021N00054669WA0000000391
B1533543748015N00054679WA0000000388
B1534003748014N00054694WA0000000389
B1534063748011N00054708WA0000000384
B1534123748009N00054720WA0000000384
B1534183748007N00054734WA0000000380
B1534243748006N00054746WA0000000381
B1534303748004N00054765WA0000000378
B1534363748003N00054772WA0000000379
B1534423747997N00054784WA0000000375
B1534483747997N00054800WA0000000372
B1534543747999N00054817WA0000000366
B1535003747999N00054834WA0000000358
B1535063747999N00054855WA0000000350
B1535123748000N00054880WA0000000348
B1535183748001N00054896WA0000000351
B1535243748001N00054911WA0000000348
B1535303747999N00054923WA0000000348
B1535363747995N00054908WA0000000348
B1535423747994N00054888WA0000000345
B1535483747989N00054900WA0000000340
B1535543747992N00054924WA0000000339
B1536003747994N00054952WA0000000339
B1536063747997N00054969WA0000000335
B1536123747994N00054984WA0000000330
B1536183748004N00055011WA0000000326
B1536243748011N00055038WA0000000323
B1536303748019N00055062WA0000000323
B1536363748018N00055073WA0000000318
B1536423748020N00055093WA0000000315
B1536483748023N00055115WA0000000312
B1536543748020N00055132WA0000000308
B1537003748015N00055145WA0000000302
B1537063748016N00055166WA0000000297
B1537123748011N00055180WA0000000290
B1537183748004N00055157WA0000000284
B1537243748001N00055129WA0000000276
B1537303747998N00055103WA0000000273
B1537363747995N00055075WA0000000271
B1537423747994N00055047WA0000000271
B1537483747997N00055016WA0000000270
B1537543748002N00054985WA0000000275
B1538003748000N00054958WA0000000277
B1538063748000N00054933WA0000000277
B1538123747995N00054907WA0000000276
B1538183747990N00054883WA0000000276
B1538243747991N00054855WA0000000276
B1538303747990N00054823WA0000000275
B1538363747999N00054788WA0000000276
B1538423748013N00054751WA0000000277
B1538483748029N00054719WA0000000285
B1538543748030N00054693WA0000000288
B1539003748027N00054714WA0000000289
B1539063748020N00054724WA0000000291
B1539123748015N00054742WA0000000296
B1539183748010N00054761WA0000000300
B1539243748006N00054781WA0000000297
B1539303747999N00054790WA0000000304
B1539363747989N00054792WA0000000303
B1539423747986N00054809WA0000000301
B1539483747979N00054821WA0000000298
B1539543747972N00054816WA0000000296
B1540003747977N00054780WA0000000295
B1540063747989N00054743WA0000000294
B1540123748008N00054707WA0000000293
B1540183748029N00054673WA0000000294
B1540243748043N00054637WA0000000295
B1540303748049N00054597WA0000000299
B1540363748053N00054565WA0000000307
B1540423748059N00054532WA0000000312
B1540483748055N00054512WA0000000315
B1540543748056N00054528WA0000000320
B1541003748066N00054550WA0000000324
B1541063748071N00054569WA0000000330
B1541123748068N00054578WA0000000329
B1541183748065N00054550WA0000000333
B1541243748055N00054530WA0000000339
B1541303748047N00054522WA0000000343
B1541363748043N00054532WA0000000348
B1541423748041N00054541WA0000000353
B1541483748034N00054545WA0000000355
B1541543748026N00054533WA0000000358
B1542003748019N00054509WA0000000359
B1542063748016N00054517WA0000000359
B1542123748034N00054536WA0000000360
B1542183748031N00054537WA0000000366
B1542243748030N00054509WA0000000368
B1542303748025N00054507WA0000000367
B1542363748035N00054526WA0000000370
B1542423748034N00054538WA0000000373
B1542483748029N00054528WA0000000377
B1542543748024N00054512WA0000000377
B1543003748018N00054510WA0000000377
B1543063748016N00054522WA0000000377
B1543123748009N00054526WA0000000380
B1543183748004N00054521WA0000000380
B1543243747999N00054514WA0000000382
B1543303747995N00054519WA0000000381
B1543363747988N00054526WA0000000380
B1543423747981N00054532WA0000000380
B1543483747979N00054539WA0000000382
B1543543747972N00054541WA0000000381
B1544003747960N00054543WA0000000382
B1544063747952N00054540WA0000000381
B1544123747943N00054540WA0000000381
B1544183747936N00054543WA0000000377
B1544243747925N00054546WA0000000376
B1544303747913N00054549WA0000000372
B1544363747897N00054549WA0000000364
B1544423747881N00054548WA0000000360
B1544483747868N00054547WA0000000356
B1544543747855N00054547WA0000000352
B1545003747839N00054541WA0000000350
B1545063747824N00054536WA0000000346
B1545123747812N00054539WA0000000342
B1545183747796N00054544WA0000000339
B1545243747780N00054540WA0000000332
B1545303747762N00054535WA0000000323
B1545363747744N00054526WA0000000314
B1545423747729N00054517WA0000000308
B1545483747717N00054522WA0000000302
B1545543747707N00054536WA0000000297
B1546003747695N00054542WA0000000292
B1546063747692N00054557WA0000000288
B1546123747710N00054581WA0000000281
B1546183747742N00054602WA0000000276
B1546243747776N00054621WA0000000269
B1546303747811N00054631WA0000000264
B1546363747846N00054640WA0000000259
B1546423747886N00054641WA0000000254
B1546483747929N00054629WA0000000252
B1546543747970N00054625WA0000000256
B1547003748007N00054639WA0000000260
B1547063748037N00054663WA0000000264
B1547123748057N00054690WA0000000268
B1547183748052N00054707WA0000000276
B1547243748042N00054685WA0000000285
B1547303748043N00054654WA0000000290
B1547363748042N00054627WA0000000300
B1547423748032N00054604WA0000000303
B1547483748021N00054582WA0000000307
B1547543748014N00054556WA0000000309
B1548003748013N00054521WA0000000311
B1548063748003N00054509WA0000000311
B1548123748007N00054530WA0000000312
B1548183748007N00054547WA0000000312
B1548243748001N00054555WA0000000311
B1548303748000N00054574WA0000000314
B1548363747999N00054594WA0000000316
B1548423747996N00054608WA0000000317
B1548483747985N00054604WA0000000311
B1548543747972N00054607WA0000000312
B1549003747959N00054598WA0000000315
B1549063747953N00054587WA0000000319
B1549123747947N00054572WA0000000321
B1549183747943N00054552WA0000000322
B1549243747940N00054528WA0000000325
B1549303747935N00054511WA0000000326
B1549363747931N00054500WA0000000326
B1549423747927N00054484WA0000000325
B1549483747933N00054499WA0000000324
B1549543747961N00054519WA0000000326
B1550003747972N00054538WA0000000325
B1550063747968N00054530WA0000000322
B1550123747965N00054504WA0000000321
B1550183747961N00054504WA0000000321
B1550243747965N00054518WA0000000322
B1550303747960N00054528WA0000000324
B1550363747957N00054537WA0000000327
B1550423747953N00054541WA0000000323
B1550483747957N00054559WA0000000320
B1550543747976N00054581WA0000000317
B1551003747991N00054604WA0000000314
B1551063747998N00054627WA0000000309
B1551123748005N00054651WA0000000306
B1551183748020N00054676WA0000000304
B1551243748038N00054702WA0000000304
B1551303748035N00054705WA0000000303
B1551363748042N00054678WA0000000306
B1551423748049N00054648WA0000000311
B1551483748055N00054618WA0000000318
B1551543748056N00054596WA0000000325
B1552003748051N00054583WA0000000328
B1552063748052N00054556WA0000000329
B1552123748055N00054530WA0000000334
B1552183748049N00054522WA0000000339
B1552243748045N00054515WA0000000345
B1552303748042N00054506WA0000000349
B1552363748039N00054498WA0000000352
B1552423748036N00054502WA0000000356
B1552483748033N00054502WA0000000360
B1552543748028N00054502WA0000000362
B1553003748032N00054517WA0000000365
B1553063748036N00054533WA0000000368
B1553123748034N00054532WA0000000370
B1553183748031N00054517WA0000000372
B1553243748027N00054507WA0000000373
B1553303748031N00054518WA0000000372
B1553363748031N00054534WA0000000373
B1553423748026N00054539WA0000000377
B1553483748022N00054544WA0000000378
B1553543748019N00054543WA0000000379
B1554003748016N00054553WA0000000380
B1554063748016N00054558WA0000000384
B1554123748015N00054563WA0000000384
B1554183748015N00054574WA0000000386
B1554243748017N00054581WA0000000388
B1554303748016N00054581WA0000000388
B1554363748014N00054585WA0000000386
B1554423748017N00054594WA0000000388
B1554483748015N00054601WA0000000385
B1554543748011N00054611WA0000000386
B1555003748011N00054623WA0000000386
B1555063748008N00054634WA0000000384
B1555123748006N00054650WA0000000383
B1555183748006N00054665WA0000000384
B1555243748007N00054679WA0000000383
B1555303748007N00054692WA0000000385
B1555363748005N00054697WA0000000384
B1555423748002N00054690WA0000000382
B1555483748002N00054665WA0000000378
B1555543748012N00054627WA0000000375
B1556003748018N00054593WA0000000375
B1556063748011N00054582WA0000000375
B1556123748008N00054595WA0000000376
B1556183748004N00054603WA0000000372
B1556243747998N00054616WA0000000372
B1556303747995N00054629WA0000000369
B1556363747989N00054640WA0000000366
B1556423747987N00054653WA0000000367
B1556483747983N00054664WA0000000366
B1556543747978N00054678WA0000000366
B1557003747977N00054690WA0000000369
B1557063747973N00054703WA0000000370
B1557123747972N00054711WA0000000369
B1557183747969N00054723WA0000000364
B1557243747968N00054740WA0000000363
B1557303747968N00054758WA0000000359
B1557363747965N00054771WA0000000356
B1557423747960N00054782WA0000000351
B1557483747955N00054797WA0000000347
B1557543747950N00054812WA0000000344
B1558003747953N00054833WA0000000342
B1558063747958N00054856WA0000000342
B1558123747963N00054875WA0000000343
B1558183747962N00054889WA0000000341
B1558243747966N00054906WA0000000340
B1558303747966N00054920WA0000000337
B1558363747967N00054935WA0000000333
B1558423747969N00054952WA0000000332
B1558483747972N00054972WA0000000330
B1558543747972N00054988WA0000000327
B1559003747971N00055005WA0000000320
B1559063747966N00055021WA0000000317
B1559123747963N00055038WA0000000315
B1559183747961N00055054WA0000000314
B1559243747954N00055066WA0000000312
B1559303747948N00055071WA0000000309
B1559363747942N00055072WA0000000308
B1559423747937N00055079WA0000000307
B1559483747936N00055087WA0000000309
B1559543747930N00055085WA0000000305
B1600003747926N00055090WA0000000304
B1600063747921N00055098WA0000000301
B1600123747916N00055101WA0000000298
B1600183747909N00055102WA0000000293
B1600243747902N00055103WA0000000290
B1600303747895N00055100WA0000000286
B1600363747888N00055104WA0000000280
B1600423747879N00055097WA0000000278
B1600483747872N00055085WA0000000275
B1600543747869N00055070WA0000000275
B1601003747865N00055065WA0000000270
B1601063747884N00055091WA0000000266
B1601123747923N00055082WA0000000262
B1601183747941N00055047WA0000000260
B1601243747955N00055016WA0000000260
B1601303747977N00054984WA0000000260
B1601363747992N00054954WA0000000261
B1601423747989N00054942WA0000000262
B1601483748004N00054967WA0000000262
B1601543748004N00054974WA0000000259
B1602003748006N00054954WA0000000263
B1602063748004N00054933WA0000000265
B1602123748008N00054905WA0000000266
B1602183748015N00054881WA0000000268
B1602243748013N00054877WA0000000270
B1602303748018N00054897WA0000000272
B1602363748016N00054894WA0000000272
B1602423748019N00054873WA0000000275
B1602483748021N00054849WA0000000275
B1602543748024N00054828WA0000000277
B1603003748025N00054808WA0000000276
B1603063748032N00054782WA0000000278
B1603123748040N00054758WA0000000281
B1603183748044N00054739WA0000000280
B1603243748046N00054717WA0000000282
B1603303748053N00054694WA0000000288
B1603363748060N00054671WA0000000292
B1603423748067N00054649WA0000000298
B1603483748070N00054628WA0000000303
B1603543748072N00054608WA0000000311
B1604003748074N00054589WA0000000318
B1604063748073N00054571WA0000000326
B1604123748071N00054554WA0000000333
B1604183748068N00054537WA0000000340
B1604243748066N00054520WA0000000345
B1604303748063N00054506WA0000000350
B1604363748058N00054505WA0000000353
B1604423748057N00054512WA0000000357
B1604483748055N00054508WA0000000359
B1604543748053N00054497WA0000000361
B1605003748050N00054488WA0000000362
B1605063748047N00054489WA0000000364
B1605123748046N00054497WA0000000369
B1605183748043N00054501WA0000000372
B1605243748040N00054504WA0000000374
B1605303748035N00054504WA0000000376
B1605363748029N00054498WA0000000378
B1605423748025N00054489WA0000000379
B1605483748022N00054483WA0000000378
B1605543748022N00054493WA0000000378
B1606003748030N00054512WA0000000378
B1606063748034N00054527WA0000000380
B1606123748037N00054536WA0000000378
B1606183748038N00054548WA0000000382
B1606243748039N00054560WA0000000380
B1606303748040N00054577WA0000000378
B1606363748038N00054592WA0000000377
B1606423748039N00054612WA0000000377
B1606483748045N00054630WA0000000378
B1606543748043N00054645WA0000000377
B1607003748046N00054668WA0000000380
B1607063748048N00054683WA0000000381
B1607123748048N00054697WA0000000381
B1607183748044N00054714WA0000000383
B1607243748046N00054726WA0000000384
B1607303748044N00054741WA0000000385
B1607363748042N00054754WA0000000381
B1607423748042N00054772WA0000000378
B1607483748041N00054793WA0000000375
B1607543748039N00054814WA0000000374
B1608003748037N00054827WA0000000373
B1608063748033N00054840WA0000000374
B1608123748031N00054856WA0000000371
B1608183748030N00054874WA0000000368
B1608243748033N00054896WA0000000365
B1608303748035N00054919WA0000000363
B1608363748037N00054943WA0000000361
B1608423748040N00054960WA0000000361
B1608483748039N00054973WA0000000357
B1608543748043N00054995WA0000000354
B1609003748050N00055020WA0000000352
B1609063748062N00055047WA0000000349
B1609123748074N00055073WA0000000344
B1609183748083N00055099WA0000000338
B1609243748091N00055126WA0000000333
B1609303748092N00055145WA0000000331
B1609363748091N00055159WA0000000329
B1609423748093N00055178WA0000000325
B1609483748092N00055192WA0000000320
B1609543748087N00055200WA0000000316
B1610003748080N00055196WA0000000313
B1610063748072N00055181WA0000000308
B1610123748066N00055164WA0000000304
B1610183748058N00055150WA0000000302
B1610243748050N00055134WA0000000299
B1610303748044N00055117WA0000000294
B1610363748039N00055099WA0000000290
B1610423748032N00055082WA0000000288
B1610483748027N00055066WA0000000284
B1610543748021N00055045WA0000000280
B1611003748019N00055021WA0000000279
B1611063748018N00054999WA0000000277
B1611123748017N00054977WA0000000279
B1611183748018N00054959WA0000000277
B1611243748017N00054938WA0000000278
B1611303748020N00054912WA0000000278
B1611363748026N00054882WA0000000276
B1611423748028N00054853WA0000000274
B1611483748033N00054825WA0000000272
B1611543748044N00054794WA0000000270
B1612003748060N00054764WA0000000270
B1612063748069N00054737WA0000000271
B1612123748069N00054718WA0000000272
B1612183748068N00054697WA0000000274
B1612243748067N00054675WA0000000278
B1612303748069N00054648WA0000000285
B1612363748077N00054619WA0000000294
B1612423748081N00054593WA0000000302
B1612483748080N00054572WA0000000310
B1612543748078N00054548WA0000000318
B1613003748075N00054526WA0000000323
B1613063748070N00054510WA0000000328
B1613123748064N00054502WA0000000331
B1613183748058N00054499WA0000000333
B1613243748058N00054512WA0000000335
B1613303748062N00054529WA0000000338
B1613363748059N00054538WA0000000339
B1613423748054N00054531WA0000000341
B1613483748049N00054520WA0000000342
B1613543748046N00054523WA0000000344
B1614003748052N00054542WA0000000346
B1614063748052N00054553WA0000000347
B1614123748048N00054550WA0000000347
B1614183748047N00054530WA0000000350
B1614243748046N00054509WA0000000351
B1614303748043N00054508WA0000000351
B1614363748055N00054529WA0000000352
B1614423748059N00054545WA0000000353
B1614483748056N00054536WA0000000355
B1614543748058N00054511WA0000000357
B1615003748056N00054503WA0000000359
B1615063748061N00054516WA0000000361
B1615123748067N00054527WA0000000362
B1615183748066N00054523WA0000000362
B1615243748067N00054508WA0000000364
B1615303748066N00054498WA0000000369
B1615363748065N00054495WA0000000371
B1615423748064N00054494WA0000000373
B1615483748064N00054490WA0000000373
B1615543748058N00054484WA0000000375
B1616003748058N00054481WA0000000376
B1616063748053N00054481WA0000000376
B1616123748049N00054477WA0000000379
B1616183748045N00054476WA0000000377
B1616243748042N00054472WA0000000381
B1616303748042N00054467WA0000000381
B1616363748037N00054463WA0000000382
B1616423748035N00054457WA0000000384
B1616483748034N00054454WA0000000382
B1616543748032N00054449WA0000000382
B1617003748031N00054448WA0000000380
B1617063748026N00054444WA0000000376
B1617123748021N00054432WA0000000375
B1617183748015N00054416WA0000000377
B1617243748010N00054409WA0000000375
B1617303748003N00054402WA0000000374
B1617363747996N00054389WA0000000370
B1617423747988N00054377WA0000000366
B1617483747981N00054368WA0000000361
B1617543747973N00054357WA0000000357
B1618003747966N00054344WA0000000353
B1618063747961N00054335WA0000000346
B1618123747955N00054324WA0000000343
B1618183747951N00054314WA0000000341
B1618243747948N00054306WA0000000339
B1618303747945N00054297WA0000000338
B1618363747942N00054286WA0000000337
B1618423747941N00054277WA0000000336
B1618483747940N00054271WA0000000335
B1618543747938N00054268WA0000000331
B1619003747935N00054266WA0000000326
B1619063747929N00054256WA0000000323
B1619123747924N00054245WA0000000321
B1619183747918N00054237WA0000000316
B1619243747909N00054233WA0000000311
B1619303747900N00054229WA0000000306
B1619363747891N00054229WA0000000302
B1619423747883N00054231WA0000000296
B1619483747872N00054232WA0000000293
B1619543747862N00054232WA0000000289
B1620003747851N00054237WA0000000285
B1620063747842N00054245WA0000000279
B1620123747833N00054254WA0000000273
B1620183747827N00054260WA0000000273
B1620243747824N00054262WA0000000271
B1620303747820N00054262WA0000000271
B1620363747814N00054256WA0000000270
B1620423747809N00054250WA0000000271
B1620483747805N00054252WA0000000270
B1620543747802N00054254WA0000000268
B1621003747798N00054254WA0000000266
B1621063747794N00054253WA0000000265
B1621123747789N00054252WA0000000262
B1621183747777N00054256WA0000000252
B1621243747765N00054260WA0000000244
B1621303747751N00054266WA0000000239
B1621363747738N00054272WA0000000230
B1621423747724N00054273WA0000000223
B1621483747710N00054275WA0000000214
B1621543747698N00054278WA0000000204
B1622003747687N00054287WA0000000195
B1622063747677N00054297WA0000000188
B1622123747671N00054293WA0000000182
B1622183747678N00054267WA0000000179
B1622243747722N00054246WA0000000176
B1622303747737N00054264WA0000000168
B1622363747768N00054241WA0000000164
B1622423747774N00054254WA0000000157
B1622483747772N00054227WA0000000157
B1622543747769N00054215WA0000000153
B1623003747775N00054186WA0000000150
B1623063747777N00054166WA0000000145
B1623123747788N00054192WA0000000140
B1623183747783N00054174WA0000000134
B1623243747777N00054165WA0000000128
B1623303747780N00054188WA0000000125
B1623363747781N00054159WA0000000123
B1623423747774N00054167WA0000000115
B1623483747768N00054171WA0000000107
B1623543747781N00054137WA0000000102
B1624003747787N00054102WA0000000100
B1624063747789N00054072WA0000000096
B1624123747790N00054039WA0000000090
B1624183747798N00054004WA0000000087
B1624243747791N00053982WA0000000078
B1624303747789N00054004WA0000000076
B1624363747782N00054020WA0000000069
B1624423747764N00054018WA0000000063
B1624483747751N00054009WA0000000058
LXCG     VERSION:5.7
GAA23DE952032F8D8C2366C2A61978BDF48A9BB75AB1EA9B12BA708762BF99C2D0F03F
G399ECA26B57D42CAFE53CF321F3B9E2D8782D89854593AA37CACE0BE4FC102B0758
G5035291C37EF37A37CD0CEFACF99212D50757D9AAFB37F8FD3F97D5AFD69C25DE7A
G6BB8D17F9B5E0452DF85E8DFD33AEA67D851E4D18B5FFF83F7899C6C5A773